Terminal Aerodrome Forecast
Issued by NWS Shreveport, LA

Home | Current Version | Previous Version | Text Only | Print | Product List | Glossary On
Versions: 1 2 3 4 5 6 7 8 9 10 11 12 13
000
FTUS44 KSHV 272341
TAFELD
TAF
KELD 272341Z 2800/2824 15005KT P6SM SCT060
     FM280100 VRB03KT P6SM SKC
     FM281500 23005KT P6SM SKC
     FM281800 20006KT P6SM SCT250=

USA.gov is the U.S. government's official web portal to all federal, state and local government web resources and services.